createdAt,value
2022-11-15T00:04:05.865Z,56.5
2022-11-15T00:09:24.655Z,55.9
2022-11-15T00:14:42.842Z,56.6
2022-11-15T00:20:01.073Z,56.4
2022-11-15T00:25:19.343Z,55.6
2022-11-15T00:30:37.521Z,55.9
2022-11-15T00:35:56.021Z,56
2022-11-15T00:41:14.561Z,56
2022-11-15T00:46:33.038Z,55.3
2022-11-15T00:51:51.515Z,55.7
2022-11-15T00:57:10.034Z,55.7
2022-11-15T01:02:28.803Z,54.9
2022-11-15T01:07:47.554Z,55.5
2022-11-15T01:13:06.083Z,55
2022-11-15T01:18:24.552Z,55.6
2022-11-15T01:23:42.745Z,55.8
2022-11-15T01:29:01.536Z,55.9
2022-11-15T01:34:20.012Z,56.1
2022-11-15T01:39:38.212Z,55.2
2022-11-15T01:44:56.458Z,56.2
2022-11-15T01:50:15.204Z,56.1
2022-11-15T01:55:33.686Z,55.9
2022-11-15T02:00:52.441Z,56.2
2022-11-15T02:06:10.923Z,55.4
2022-11-15T02:11:28.836Z,55.2
2022-11-15T02:16:31.302Z,55.2
2022-11-15T02:21:49.750Z,55.8
2022-11-15T02:27:08.528Z,55.5
2022-11-15T02:32:27.047Z,55.1
2022-11-15T02:37:45.799Z,55.4
2022-11-15T02:43:08.853Z,54.7
2022-11-15T02:48:27.385Z,55
2022-11-15T02:53:45.551Z,55.3
2022-11-15T02:59:04.062Z,55.1
2022-11-15T03:04:22.583Z,55.8
2022-11-15T03:09:41.036Z,55
2022-11-15T03:14:59.240Z,55.7
2022-11-15T03:20:18.052Z,55.3
2022-11-15T03:25:36.218Z,55
2022-11-15T03:30:54.988Z,55.3
2022-11-15T03:36:13.215Z,55.4
2022-11-15T03:41:31.705Z,55.2
2022-11-15T03:46:50.201Z,55
2022-11-15T03:52:08.724Z,54.5
2022-11-15T03:57:26.915Z,55.4
2022-11-15T04:02:45.408Z,55.1
2022-11-15T04:08:04.239Z,54.4
2022-11-15T04:13:22.721Z,54.7
2022-11-15T04:18:41.192Z,54.5
2022-11-15T04:23:59.989Z,54.5
2022-11-15T04:29:18.738Z,55.3
2022-11-15T04:34:37.507Z,54.5
2022-11-15T04:39:56.322Z,55.6
2022-11-15T04:45:14.791Z,54.5
2022-11-15T04:50:33.273Z,55.1
2022-11-15T04:55:51.246Z,54.4
2022-11-15T05:01:10.113Z,54.9
2022-11-15T05:06:28.637Z,55.1
2022-11-15T05:11:46.871Z,54.8
2022-11-15T05:17:05.063Z,54.5
2022-11-15T05:22:24.442Z,54.2
2022-11-15T05:27:42.976Z,53.9
2022-11-15T05:33:01.755Z,54.9
2022-11-15T05:38:20.523Z,53.9
2022-11-15T05:43:38.889Z,54
2022-11-15T05:48:57.609Z,54.6
2022-11-15T05:54:16.386Z,54
2022-11-15T05:59:34.427Z,54.4
2022-11-15T06:04:52.885Z,41.6
2022-11-15T06:10:11.660Z,46.8
2022-11-15T06:15:29.878Z,50.1
2022-11-15T06:20:48.622Z,50.6
2022-11-15T06:25:51.796Z,50.7
2022-11-15T06:31:10.300Z,51.9
2022-11-15T06:36:28.773Z,51.5
2022-11-15T06:41:47.519Z,52
2022-11-15T06:47:06.036Z,52.6
2022-11-15T06:52:24.515Z,51.9
2022-11-15T06:57:43.015Z,51.9
2022-11-15T07:03:00.985Z,52.1
2022-11-15T07:08:19.712Z,52
2022-11-15T07:13:38.340Z,52.5
2022-11-15T07:18:56.337Z,52.8
2022-11-15T07:24:14.812Z,52.1
2022-11-15T07:29:32.738Z,51.8
2022-11-15T07:34:51.303Z,52.2
2022-11-15T07:39:53.577Z,52.4
2022-11-15T07:45:12.291Z,52
2022-11-15T07:50:30.858Z,52.9
2022-11-15T07:55:49.326Z,52.7
2022-11-15T08:01:08.804Z,52.6
2022-11-15T08:06:27.072Z,51.7
2022-11-15T08:11:45.530Z,52
2022-11-15T08:17:03.736Z,52.8
2022-11-15T08:22:22.532Z,53.4
2022-11-15T08:27:40.947Z,53
2022-11-15T08:32:59.538Z,52.5
2022-11-15T08:38:18.126Z,51.9
2022-11-15T08:43:36.143Z,52.1
2022-11-15T08:48:54.915Z,52.8
2022-11-15T08:54:13.846Z,52.4
2022-11-15T08:59:32.679Z,52.8
2022-11-15T09:04:51.167Z,51.9
2022-11-15T09:10:09.393Z,51.8
2022-11-15T09:15:27.860Z,52.7
2022-11-15T09:20:46.080Z,52.8
2022-11-15T09:26:04.951Z,52.8
2022-11-15T09:31:23.416Z,52.2
2022-11-15T09:36:41.638Z,51.9
2022-11-15T09:42:00.248Z,52.7
2022-11-15T09:47:18.147Z,52.3
2022-11-15T09:52:36.052Z,52.5
2022-11-15T09:57:54.702Z,52.2
2022-11-15T10:03:13.302Z,52
2022-11-15T10:08:32.887Z,52.9
2022-11-15T10:13:51.267Z,51.8
2022-11-15T10:19:09.453Z,52.5
2022-11-15T10:24:27.936Z,53.1
2022-11-15T10:29:46.727Z,53
2022-11-15T10:35:04.915Z,53
2022-11-15T10:45:46.784Z,52.8
2022-11-15T10:51:05.225Z,53.1
2022-11-15T10:56:23.453Z,52.3
2022-11-15T11:01:41.846Z,52.9
2022-11-15T11:07:00.570Z,52.4
2022-11-15T11:12:19.037Z,52.8
2022-11-15T11:17:37.555Z,52.8
2022-11-15T11:22:55.468Z,52.4
2022-11-15T11:28:13.933Z,52.9
2022-11-15T11:33:32.728Z,52.2
2022-11-15T11:38:51.482Z,52.5
2022-11-15T11:44:10.240Z,52.2
2022-11-15T11:49:28.797Z,52
2022-11-15T11:54:46.985Z,52.5
2022-11-15T12:00:04.918Z,52.6
2022-11-15T12:05:23.708Z,51.9
2022-11-15T12:10:42.167Z,52.3
2022-11-15T12:16:02.120Z,51.8
2022-11-15T12:21:29.252Z,52.6
2022-11-15T12:26:47.698Z,51.9
2022-11-15T12:32:06.169Z,52.7
2022-11-15T12:37:25.066Z,52
2022-11-15T12:42:43.523Z,52
2022-11-15T12:48:02.013Z,51.8
2022-11-15T12:53:20.789Z,52.5
2022-11-15T12:58:39.522Z,51.4
2022-11-15T13:04:07.473Z,52.1
2022-11-15T13:09:25.988Z,52.2
2022-11-15T13:14:44.723Z,52.5
2022-11-15T13:20:03.220Z,52.3
2022-11-15T13:25:22.033Z,51.6
2022-11-15T13:30:40.498Z,51.7
2022-11-15T13:35:59.277Z,52.7
2022-11-15T13:41:17.775Z,52.6
2022-11-15T13:46:36.254Z,52.5
2022-11-15T13:51:54.740Z,51.8
2022-11-15T13:57:13.526Z,51.9
2022-11-15T14:02:32.251Z,52.6
2022-11-15T14:07:51.024Z,52.5
2022-11-15T14:13:09.868Z,52.8
2022-11-15T14:18:12.987Z,52
2022-11-15T14:23:31.751Z,52.8
2022-11-15T14:28:50.553Z,52.7
2022-11-15T14:34:09.278Z,52.8
2022-11-15T14:39:28.041Z,51.9
2022-11-15T14:44:47.155Z,53
2022-11-15T14:50:06.154Z,52.7
2022-11-15T14:55:24.638Z,52
2022-11-15T15:00:43.523Z,51.7
2022-11-15T15:06:01.731Z,52.6
2022-11-15T15:11:20.495Z,52.2
2022-11-15T15:16:39.288Z,52.6
2022-11-15T15:21:58.025Z,52.1
2022-11-15T15:27:16.797Z,52.8
2022-11-15T15:32:35.432Z,52.5
2022-11-15T15:37:54.434Z,52.1
2022-11-15T15:43:12.904Z,52.8
2022-11-15T15:48:32.939Z,52
2022-11-15T15:53:51.559Z,52.3
2022-11-15T15:59:10.038Z,52
2022-11-15T16:04:28.954Z,52.7
2022-11-15T16:09:47.702Z,52.2
2022-11-15T16:15:06.459Z,52.6
2022-11-15T16:20:25.271Z,52.9
2022-11-15T16:25:43.734Z,52.3
2022-11-15T16:31:03.403Z,52.9
2022-11-15T16:36:31.291Z,52.4
2022-11-15T16:41:49.862Z,53.1
2022-11-15T16:47:08.640Z,53.1
2022-11-15T16:52:26.901Z,52.3
2022-11-15T16:57:45.071Z,52.3
2022-11-15T17:03:03.850Z,52.4
2022-11-15T17:08:22.412Z,52.3
2022-11-15T17:13:41.176Z,52.8
2022-11-15T17:18:59.653Z,52.4
2022-11-15T17:24:17.939Z,53.1
2022-11-15T17:29:36.407Z,53.1
2022-11-15T17:34:54.889Z,52.3
2022-11-15T17:40:12.963Z,52.4
2022-11-15T17:45:31.433Z,52.2
2022-11-15T17:50:49.916Z,52.6
2022-11-15T17:56:08.480Z,53.2
2022-11-15T18:01:27.275Z,53.1
2022-11-15T18:06:46.028Z,52.3
2022-11-15T18:11:49.030Z,52.4
2022-11-15T18:17:07.208Z,52.4
2022-11-15T18:22:10.055Z,51.2
2022-11-15T18:27:28.552Z,51.6
2022-11-15T18:32:47.022Z,52.3
2022-11-15T18:38:05.602Z,52
2022-11-15T18:43:23.556Z,52.4
2022-11-15T18:48:42.318Z,52.5
2022-11-15T18:53:45.459Z,52.7
2022-11-15T18:59:03.988Z,53.1
2022-11-15T19:04:22.189Z,52.8
2022-11-15T19:09:40.111Z,52.8
2022-11-15T19:14:59.113Z,52
2022-11-15T19:20:17.572Z,52.8
2022-11-15T19:25:35.493Z,52
2022-11-15T19:30:54.287Z,52.2
2022-11-15T19:36:13.027Z,52.2
2022-11-15T19:41:31.473Z,52.5
2022-11-15T19:46:49.708Z,52.8
2022-11-15T19:52:07.882Z,51.9
2022-11-15T19:57:26.668Z,52.9
2022-11-15T20:02:45.222Z,51.9
2022-11-15T20:08:03.690Z,52.1
2022-11-15T20:13:22.186Z,52
2022-11-15T20:18:40.713Z,52.1
2022-11-15T20:23:59.171Z,52.1
2022-11-15T20:29:17.961Z,52.4
2022-11-15T20:34:36.512Z,52.8
2022-11-15T20:39:54.968Z,52.7
2022-11-15T20:44:57.845Z,52.2
2022-11-15T20:50:43.865Z,52.5
2022-11-15T20:56:02.196Z,52.1
2022-11-15T21:01:20.798Z,52.3
2022-11-15T21:06:40.685Z,52
2022-11-15T21:12:00.915Z,53
2022-11-15T21:17:19.130Z,51.9
2022-11-15T21:22:37.358Z,52.9
2022-11-15T21:27:56.141Z,52.4
2022-11-15T21:32:58.998Z,53.3
2022-11-15T21:38:17.538Z,52.9
2022-11-15T21:43:35.716Z,53.9
2022-11-15T21:48:53.923Z,53.9
2022-11-15T21:54:12.717Z,53.6
2022-11-15T21:59:31.416Z,53
2022-11-15T22:04:50.186Z,54.2
2022-11-15T22:10:08.973Z,53.8
2022-11-15T22:15:27.331Z,55.2
2022-11-15T22:20:46.151Z,53.9
2022-11-15T22:26:04.378Z,53.9
2022-11-15T22:31:23.131Z,54
2022-11-15T22:37:21.557Z,54.1
2022-11-15T22:42:40.441Z,54.2
2022-11-15T22:47:59.168Z,54.2
2022-11-15T22:53:17.688Z,55
2022-11-15T22:58:37.944Z,54.5
2022-11-15T23:03:56.694Z,54.3
2022-11-15T23:09:15.438Z,55.1
2022-11-15T23:14:33.944Z,54.4
2022-11-15T23:19:52.141Z,54.7
2022-11-15T23:25:10.337Z,55.4
2022-11-15T23:30:28.295Z,54.4
2022-11-15T23:35:46.757Z,55.3
2022-11-15T23:41:04.691Z,55
2022-11-15T23:46:23.316Z,55.1
2022-11-15T23:51:41.511Z,55
2022-11-15T23:56:59.710Z,55.6
